Terminal Aerodrome Forecast
Issued by NWS

Home | Current Version | Previous Version | Text Only | Print | Product List | Glossary On
Versions: 1 2 3 4 5 6 7 8 9 10 11 12 13
989
FTUS46 KLOX 112347
TAFSBP
TAF
KSBP 112347Z 1200/1224 11004KT P6SM SCT250
     FM121600 VRB03KT P6SM SKC
     FM122300 32006KT P6SM SKC=

USA.gov is the U.S. government's official web portal to all federal, state and local government web resources and services.